RJGG(METAR)
05/26 19:00
METAR RJGG 261000Z 20005KT 9999 -RA FEW020 SCT040 BKN110 21/18 Q1007
NOSIG RMK 1CU020 4SC040 7AC110 A2974=
戻る
トップページへ戻る
IMOC Co,.Ltd.